Flight Track Log - Related Links

Times and Time Zones

All times are in EDT time to prevent confusion due to time zone crossing. See the DAL1981 flight status page for this flight to view local times or setup timezone preferences in your user account.

Time Position Orientation Groundspeed Altitude Reporting Facility
EDT Latitude Longitude Course Direction KTS MPH feet Rate Location/Type
Mon 03:50:38 PM 38.6500 -121.5500 38° Northeast 181 208 1,800  Level Northern Cal TRACON
Mon 03:51:38 PM 38.6500 -121.4667 90° East 259 298 3,100 2,175 Climbing Northern Cal TRACON
Mon 03:52:00 PM 38.5042 -121.2208 67° East  Level FlightAware Approximate
Mon 03:53:00 PM 38.5431 -121.0513 76° East  Level FlightAware Approximate
Mon 03:53:29 PM 38.6561 -121.2897 87° East 273 314 8,000  Level Oakland Center
Mon 03:54:00 PM 38.5732 -120.8784 78° East  Level FlightAware Approximate
Mon 03:54:31 PM 38.6628 -121.1883 85° East 288 331 10,000  Level Oakland Center
Mon 03:55:00 PM 38.6023 -120.7052 76° East  Level FlightAware Approximate
Mon 03:55:32 PM 38.6692 -121.0725 86° East 320 368 10,600  Level Oakland Center
Mon 03:56:00 PM 38.6438 -120.5395 38° Northeast  Level FlightAware Approximate
Mon 03:56:34 PM 38.6772 -120.9353 86° East 372 428 12,400  Level Oakland Center
Mon 03:57:35 PM 38.6850 -120.7972 86° East 384 442 14,300 1,902 Climbing Oakland Center
Mon 03:58:37 PM 38.7097 -120.6603 77° East 400 460 16,300 1,854 Climbing Oakland Center
Mon 03:59:38 PM 38.7853 -120.5542 48° Northeast 407 468 18,100 1,561 Climbing Oakland Center
Mon 04:00:40 PM 38.8633 -120.4417 48° Northeast 416 479 19,500 1,366 Climbing Oakland Center
Mon 04:01:41 PM 38.9428 -120.3258 49° Northeast 428 493 20,900 1,525 Climbing Oakland Center
Mon 04:02:42 PM 39.0422 -120.1822 48° Northeast 443 510 22,600 1,512 Climbing Oakland Center
Mon 04:03:44 PM 39.1233 -120.0647 48° Northeast 451 519 24,000 1,366 Climbing Oakland Center
Mon 04:04:45 PM 39.2089 -119.9425 48° Northeast 457 526 25,400 1,220 Climbing Oakland Center
Mon 04:05:47 PM 39.2944 -119.8181 48° Northeast 462 532 26,500 976 Climbing Oakland Center
Mon 04:06:48 PM 39.3800 -119.6925 49° Northeast 466 536 27,400 829 Climbing Oakland Center
Mon 04:07:50 PM 39.4689 -119.5631 48° Northeast 475 547 28,200 927 Climbing Oakland Center
Mon 04:08:51 PM 39.5572 -119.4322 49° Northeast 478 550 29,300 934 Climbing Oakland Center
Mon 04:09:52 PM 39.6453 -119.3000 49° Northeast 482 555 30,100 683 Climbing Oakland Center
Mon 04:10:54 PM 39.7353 -119.1678 48° Northeast 484 557 30,700 732 Climbing Oakland Center
Mon 04:11:55 PM 39.8442 -119.0036 49° Northeast 492 566 31,600 829 Climbing Oakland Center
Mon 04:12:57 PM 39.9342 -118.8661 49° Northeast 494 568 32,400 732 Climbing Oakland Center
Mon 04:13:58 PM 40.0178 -118.7233 53° Northeast 491 565 33,100 738 Climbing Oakland Center
Mon 04:14:59 PM 40.0692 -118.5594 68° East 486 559 33,900 683 Climbing Oakland Center
Mon 04:16:01 PM 40.1203 -118.3956 68° East 485 558 34,500 439 Climbing Oakland Center
Mon 04:17:02 PM 40.1703 -118.2308 68° East 486 559 34,800 254 Climbing Oakland Center
Mon 04:17:59 PM 40.2211 -118.0633 68° East 494 568 35,000 102 Climbing Salt Lake Center
Mon 04:19:00 PM 40.2703 -117.8992 69° East 504 580 35,000  Level Salt Lake Center
Mon 04:20:02 PM 40.3200 -117.7358 68° East 502 578 35,000  Level Salt Lake Center
Mon 04:21:04 PM 40.3769 -117.5442 69° East 505 581 35,000  Level Salt Lake Center
Mon 04:22:06 PM 40.4256 -117.3794 69° East 505 581 35,000  Level Salt Lake Center
Mon 04:23:08 PM 40.4833 -117.1869 68° East 505 581 35,000  Level Salt Lake Center
Mon 04:24:10 PM 40.5325 -117.0186 69° East 507 583 35,000  Level Salt Lake Center
Mon 04:25:12 PM 40.5811 -116.8486 69° East 509 586 35,000  Level Salt Lake Center
Mon 04:26:14 PM 40.6383 -116.6525 69° East 507 583 35,000  Level Salt Lake Center
Mon 04:27:16 PM 40.6858 -116.4858 69° East 508 585 35,000  Level Salt Lake Center
Mon 04:28:18 PM 40.7406 -116.2903 70° East 511 588 35,000  Level Salt Lake Center
Mon 04:29:20 PM 40.7889 -116.1211 69° East 512 589 35,000  Level Salt Lake Center
Mon 04:30:22 PM 40.8444 -115.9256 69° East 511 588 35,000  Level Salt Lake Center
Mon 04:31:24 PM 40.8917 -115.7553 70° East 513 590 35,000  Level Salt Lake Center
Mon 04:32:26 PM 40.9386 -115.5853 70° East 514 592 35,000  Level Salt Lake Center
Mon 04:33:28 PM 40.9933 -115.3869 70° East 514 592 35,000  Level Salt Lake Center
Mon 04:34:30 PM 41.0403 -115.2139 70° East 518 596 35,000  Level Salt Lake Center
Mon 04:35:32 PM 41.0931 -115.0147 71° East 515 593 35,000  Level Salt Lake Center
Mon 04:36:33 PM 41.1406 -114.8425 70° East 514 592 35,000  Level Salt Lake Center
Mon 04:37:35 PM 41.1867 -114.6642 71° East 512 589 35,000  Level Salt Lake Center
Mon 04:38:37 PM 41.2344 -114.4850 70° East 515 593 35,000  Level Salt Lake Center
Mon 04:39:39 PM 41.2906 -114.2717 71° East 512 589 35,000  Level Salt Lake Center
Mon 04:40:41 PM 41.3378 -114.0917 71° East 516 594 35,000  Level Salt Lake Center
Mon 04:41:43 PM 41.3828 -113.9122 71° East 513 590 35,000  Level Salt Lake Center
Mon 04:42:45 PM 41.4300 -113.7325 71° East 513 590 35,000  Level Salt Lake Center
Mon 04:43:47 PM 41.4758 -113.5514 71° East 516 594 35,000  Level Salt Lake Center
Mon 04:44:49 PM 41.5219 -113.3708 71° East 515 593 35,000  Level Salt Lake Center
Mon 04:45:50 PM 41.5672 -113.1892 72° East 516 594 35,000  Level Salt Lake Center
Mon 04:46:52 PM 41.6211 -112.9708 72° East 516 594 35,000  Level Salt Lake Center
Mon 04:47:54 PM 41.6681 -112.7844 71° East 524 603 35,000  Level Salt Lake Center
Mon 04:48:56 PM 41.7122 -112.6006 72° East 521 600 35,000  Level Salt Lake Center
Mon 04:49:58 PM 41.7567 -112.4158 72° East 520 598 35,000  Level Salt Lake Center
Mon 04:51:00 PM 41.8022 -112.2289 72° East 524 603 35,000 194 Level Salt Lake Center
Mon 04:52:02 PM 41.8469 -112.0411 72° East 527 606 35,400 484 Climbing Salt Lake Center
Mon 04:53:04 PM 41.8903 -111.8578 72° East 519 597 36,000 293 Climbing Salt Lake Center
Mon 04:54:05 PM 41.9436 -111.6339 72° East 523 602 36,000  Level Salt Lake Center
Mon 04:55:07 PM 41.9697 -111.4422 80° East 522 601 36,000  Level Salt Lake Center
Mon 04:56:09 PM 41.9883 -111.2486 83° East 520 598 36,000  Level Salt Lake Center
Mon 04:57:11 PM 42.0061 -111.0511 83° East 529 609 36,000  Level Salt Lake Center
Mon 04:58:13 PM 42.0281 -110.8336 82° East 529 609 36,000  Level Salt Lake Center
Mon 04:59:15 PM 42.0461 -110.6453 83° East 531 611 36,000  Level Salt Lake Center
Mon 05:00:17 PM 42.0681 -110.4578 81° East 531 611 36,000  Level Salt Lake Center
Mon 05:01:19 PM 42.1169 -110.2433 73° East 534 615 36,000  Level Salt Lake Center
Mon 05:02:20 PM 42.1589 -110.0575 73° East 539 620 36,000  Level Salt Lake Center
Mon 05:03:22 PM 42.2078 -109.8428 73° East 537 618 36,000  Level Salt Lake Center
Mon 05:04:24 PM 42.2492 -109.6572 73° East 538 619 36,000  Level Salt Lake Center
Mon 05:05:26 PM 42.2978 -109.4397 73° East 540 621 36,000  Level Salt Lake Center
Mon 05:06:28 PM 42.3394 -109.2531 73° East 540 621 36,000  Level Salt Lake Center
Mon 05:07:30 PM 42.3817 -109.0639 73° East 546 628 36,000  Level Salt Lake Center
Mon 05:08:32 PM 42.4283 -108.8422 74° East 548 631 36,000  Level Salt Lake Center
Mon 05:09:34 PM 42.4689 -108.6522 74° East 549 632 36,000  Level Salt Lake Center
Mon 05:10:36 PM 42.5178 -108.4319 73° East 548 631 36,000  Level Salt Lake Center
Mon 05:11:38 PM 42.5567 -108.2378 75° East 552 635 36,000  Level Salt Lake Center
Mon 05:12:40 PM 42.6019 -108.0111 75° East 558 642 36,000  Level Salt Lake Center
Mon 05:13:41 PM 42.6411 -107.8175 75° East 558 642 36,000  Level Salt Lake Center
Mon 05:14:43 PM 42.6875 -107.5942 74° East 553 636 36,000  Level Salt Lake Center
Mon 05:15:45 PM 42.7253 -107.4022 75° East 551 634 36,000  Level Salt Lake Center
Mon 05:16:47 PM 42.7642 -107.2108 74° East 548 631 36,000  Level Salt Lake Center
Mon 05:17:49 PM 42.8089 -106.9861 75° East 550 633 36,000  Level Salt Lake Center
Mon 05:18:51 PM 42.8450 -106.7969 75° East 541 623 36,000  Level Salt Lake Center
Mon 05:19:24 PM 42.8714 -106.6658 75° East 552 635 36,000  Level Denver Center
Mon 05:20:26 PM 42.9094 -106.4717 75° East 553 636 36,000  Level Denver Center
Mon 05:21:28 PM 42.9531 -106.2450 75° East 554 638 36,000  Level Denver Center
Mon 05:22:30 PM 42.9875 -106.0517 76° East 550 633 36,000  Level Denver Center
Mon 05:23:32 PM 43.0333 -105.8228 75° East 556 640 36,000  Level Denver Center
Mon 05:24:35 PM 43.0683 -105.6278 76° East 553 636 36,000  Level Denver Center
Mon 05:25:37 PM 43.1100 -105.3994 76° East 553 636 36,000  Level Denver Center
Mon 05:26:39 PM 43.1453 -105.2019 76° East 555 639 36,000  Level Denver Center
Mon 05:27:41 PM 43.1808 -105.0047 76° East 555 639 36,000  Level Denver Center
Mon 05:28:43 PM 43.2217 -104.7742 76° East 554 638 36,000  Level Denver Center
Mon 05:29:45 PM 43.2556 -104.5772 77° East 552 635 36,000  Level Denver Center
Mon 05:30:47 PM 43.2947 -104.3467 77° East 553 636 36,000  Level Denver Center
Mon 05:31:49 PM 43.3281 -104.1481 77° East 555 639 36,000  Level Denver Center
Mon 05:32:51 PM 43.3658 -103.9194 77° East 549 632 36,000  Level Denver Center
Mon 05:33:53 PM 43.3983 -103.7219 77° East 551 634 36,000  Level Denver Center
Mon 05:34:55 PM 43.4317 -103.5250 77° East 553 636 36,000 -194 Level Denver Center
Mon 05:35:57 PM 43.4683 -103.2944 78° East 552 635 35,600 -484 Descending Denver Center
Mon 05:36:59 PM 43.4986 -103.0972 78° East 550 633 35,000 -290 Descending Denver Center
Mon 05:38:01 PM 43.5367 -102.8664 77° East 553 636 35,000  Level Denver Center
Mon 05:39:03 PM 43.5669 -102.6694 78° East 551 634 35,000  Level Denver Center
Mon 05:40:05 PM 43.6011 -102.4378 78° East 552 635 35,000 48 Level Denver Center
Mon 05:41:07 PM 43.6322 -102.2383 78° East 555 639 35,100  Climbing Denver Center
Mon 05:42:09 PM 43.6642 -102.0239 78° East 557 641 35,000 -48 Descending Denver Center
Mon 05:43:11 PM 43.6944 -101.8150 79° East 556 640 35,000  Level Denver Center
Mon 05:44:13 PM 43.7244 -101.6081 79° East 553 636 35,000  Level Denver Center
Mon 05:44:45 PM 43.7425 -101.4856 78° East 550 633 35,000  Level Minneapolis Center
Mon 05:45:15 PM 43.7600 -101.3594 79° East 551 634 35,000  Level Denver Center
Mon 05:46:17 PM 43.7889 -101.1519 79° East 551 634 35,000  Level Denver Center
Mon 05:46:49 PM 43.8014 -101.0714 78° East 552 635 35,000  Level Minneapolis Center
Mon 05:47:19 PM 43.8181 -100.9453 80° East 549 632 35,000  Level Denver Center
Mon 05:47:51 PM 43.8358 -100.8228 79° East 551 634 35,000  Level Minneapolis Center
Mon 05:48:53 PM 43.8642 -100.6150 79° East 550 633 35,000  Level Minneapolis Center
Mon 05:49:55 PM 43.8908 -100.4075 80° East 551 634 35,000  Level Minneapolis Center
Mon 05:50:57 PM 43.9183 -100.1989 80° East 552 635 35,000  Level Minneapolis Center
Mon 05:51:59 PM 43.9450 -99.9928 80° East 551 634 35,000  Level Minneapolis Center
Mon 05:53:01 PM 43.9725 -99.7869 79° East 548 631 35,000 -48 Level Minneapolis Center
Mon 05:54:03 PM 44.0028 -99.5408 80° East 545 627 34,900  Descending Minneapolis Center
Mon 05:55:05 PM 44.0286 -99.3350 80° East 545 627 35,000 48 Climbing Minneapolis Center
Mon 05:56:07 PM 44.0539 -99.1267 80° East 548 631 35,000  Level Minneapolis Center
Mon 05:57:08 PM 44.0750 -98.9592 80° East 551 634 35,000  Level Minneapolis Center
Mon 05:58:11 PM 44.1042 -98.7058 81° East 555 639 35,000  Level Minneapolis Center
Mon 05:59:13 PM 44.1308 -98.4875 80° East 562 647 35,000  Level Minneapolis Center
Mon 06:00:15 PM 44.1594 -98.2317 81° East 561 646 35,000  Level Minneapolis Center
Mon 06:01:17 PM 44.1825 -98.0219 81° East 551 634 35,000 -145 Level Minneapolis Center
Mon 06:02:19 PM 44.2064 -97.8128 81° East 549 632 34,700 -581 Descending Minneapolis Center
Mon 06:03:21 PM 44.2286 -97.6061 81° East 543 625 33,800 -919 Descending Minneapolis Center
Mon 06:04:23 PM 44.2497 -97.4053 82° East 528 608 32,800 -878 Descending Minneapolis Center
Mon 06:05:24 PM 44.2669 -97.2456 81° East 523 602 32,000 -871 Descending Minneapolis Center
Mon 06:06:27 PM 44.2947 -96.9697 82° East 515 593 31,000 -438 Descending Minneapolis Center
Mon 06:07:41 PM 44.2617 -96.7781 103° East 523 602 31,000  Level Minneapolis Center
Mon 06:08:43 PM 44.1736 -96.5744 121° Southeast 517 595 31,000  Level Minneapolis Center
Mon 06:09:45 PM 44.1006 -96.4089 122° Southeast 514 592 31,000 -48 Level Minneapolis Center
Mon 06:10:47 PM 44.0567 -96.1844 105° East 525 604 30,900 -484 Descending Minneapolis Center
Mon 06:11:49 PM 44.1047 -96.0111 69° East 499 574 30,000 -1,065 Descending Minneapolis Center
Mon 06:12:51 PM 44.1708 -95.8575 59° Northeast 475 547 28,700 -1,210 Descending Minneapolis Center
Mon 06:13:53 PM 44.2336 -95.7047 60° Northeast 463 533 27,500 -1,161 Descending Minneapolis Center
Mon 06:14:55 PM 44.2953 -95.5525 60° Northeast 456 525 26,300 -1,355 Descending Minneapolis Center
Mon 06:15:57 PM 44.3725 -95.3644 60° Northeast 465 535 24,700 -1,355 Descending Minneapolis Center
Mon 06:16:59 PM 44.4353 -95.2106 60° Northeast 461 531 23,500 -1,113 Descending Minneapolis Center
Mon 06:18:01 PM 44.4853 -95.0547 66° East 447 514 22,400 -1,056 Descending Minneapolis Center
Mon 06:19:04 PM 44.5231 -94.8911 72° East 443 510 21,300 -1,488 Descending Minneapolis Center
Mon 06:20:06 PM 44.5617 -94.7317 71° East 438 504 19,300 -2,226 Descending Minneapolis Center
Mon 06:21:08 PM 44.6006 -94.5619 72° East 423 487 16,700 -2,146 Descending Minneapolis Center
Mon 06:22:09 PM 44.6281 -94.4428 72° East 405 466 14,900 -1,984 Descending Minneapolis Center
Mon 06:23:12 PM 44.6683 -94.2683 72° East 390 449 12,600 -1,872 Descending Minneapolis Center
Mon 06:24:14 PM 44.7047 -94.1031 73° East 370 426 11,000 -774 Descending Minneapolis Center
Mon 06:25:16 PM 44.7356 -93.9664 72° East 368 423 11,000  Level Minneapolis Center
Mon 06:26:18 PM 44.7658 -93.8306 73° East 365 420 11,000 -353 Level Minneapolis Center
Mon 06:27:32 PM 44.7953 -93.6989 72° East 350 403 10,200 -1,139 Descending Minneapolis Center
Mon 06:28:35 PM 44.8253 -93.5614 73° East 305 351 8,400 -1,056 Descending Minneapolis Center
Mon 06:29:37 PM 44.8500 -93.4497 73° East 299 344 8,000 -194 Descending Minneapolis Center
Mon 06:30:39 PM 44.8556 -93.3442 86° East 280 322 8,000 -919 Level Minneapolis Center
Mon 06:31:41 PM 44.7711 -93.3008 160° South 282 325 6,100 -1,306 Descending Minneapolis Center
Mon 06:32:43 PM 44.7083 -93.2811 167° South 240 276 5,300 -1,016 Descending Minneapolis Center
Mon 06:33:45 PM 44.6775 -93.2261 128° Southeast 220 253 4,000 -871 Descending Minneapolis Center
Mon 06:34:47 PM 44.7317 -93.2008 18° North 183 211 3,500 -726 Descending Minneapolis Center
Mon 06:35:49 PM 44.7775 -93.2136 349° North 179 206 2,500 -871 Descending Minneapolis Center
Mon 06:36:51 PM 44.8200 -93.2247 349° North 159 183 1,700 -726 Descending Minneapolis Center
Mon 06:37:53 PM 44.8594 -93.2350 350° North 146 168 1,000 -677 Descending Minneapolis Center

Login

Don't have an account? Register now (free) for customized features, flight alerts, and more!